createdAt,value
2023-04-14T00:00:02.955Z,970.20
2023-04-14T00:01:03.603Z,970.20
2023-04-14T00:02:03.804Z,970.03
2023-04-14T00:03:04.252Z,970.23
2023-04-14T00:04:03.966Z,970.20
2023-04-14T00:05:03.794Z,970.15
2023-04-14T00:06:03.686Z,970.23
2023-04-14T00:07:03.778Z,970.18
2023-04-14T00:08:03.816Z,970.26
2023-04-14T00:09:03.970Z,970.32
2023-04-14T00:10:04.258Z,970.15
2023-04-14T00:11:03.120Z,970.21
2023-04-14T00:12:03.491Z,970.12
2023-04-14T00:13:03.601Z,970.21
2023-04-14T00:14:03.658Z,970.18
2023-04-14T00:15:03.852Z,970.18
2023-04-14T00:16:03.909Z,970.15
2023-04-14T00:17:03.938Z,970.12
2023-04-14T00:18:03.006Z,970.07
2023-04-14T00:19:03.648Z,970.15
2023-04-14T00:20:03.086Z,970.12
2023-04-14T00:21:03.050Z,970.07
2023-04-14T00:22:03.206Z,970.09
2023-04-14T00:23:03.081Z,970.07
2023-04-14T00:24:03.096Z,970.07
2023-04-14T00:25:03.026Z,970.24
2023-04-14T00:26:03.176Z,970.15
2023-04-14T00:27:03.075Z,970.12
2023-04-14T00:28:03.220Z,970.24
2023-04-14T00:29:03.737Z,970.07
2023-04-14T00:30:03.323Z,970.15
2023-04-14T00:31:03.391Z,970.15
2023-04-14T00:32:03.342Z,970.12
2023-04-14T00:33:03.336Z,969.96
2023-04-14T00:34:03.286Z,970.12
2023-04-14T00:35:03.630Z,970.12
2023-04-14T00:36:03.396Z,969.96
2023-04-14T00:37:03.345Z,970.12
2023-04-14T00:38:03.781Z,970.12
2023-04-14T00:39:03.260Z,970.18
2023-04-14T00:40:03.059Z,970.01
2023-04-14T00:41:03.045Z,970.10
2023-04-14T00:42:03.159Z,970.21
2023-04-14T00:43:03.082Z,970.27
2023-04-14T00:44:03.160Z,970.24
2023-04-14T00:45:03.146Z,970.24
2023-04-14T00:46:03.116Z,970.21
2023-04-14T00:47:03.191Z,970.15
2023-04-14T00:48:03.277Z,970.10
2023-04-14T00:49:03.919Z,970.24
2023-04-14T00:50:03.364Z,970.21
2023-04-14T00:51:03.301Z,970.24
2023-04-14T00:52:03.241Z,970.21
2023-04-14T00:53:03.348Z,970.30
2023-04-14T00:54:03.386Z,970.24
2023-04-14T00:55:03.412Z,970.21
2023-04-14T00:56:03.601Z,970.16
2023-04-14T00:57:03.551Z,970.21
2023-04-14T00:58:03.497Z,970.33
2023-04-14T00:59:03.525Z,970.27
2023-04-14T01:00:03.554Z,970.19
2023-04-14T01:01:03.551Z,970.19
2023-04-14T01:02:03.758Z,970.21
2023-04-14T01:03:03.924Z,970.27
2023-04-14T01:04:03.966Z,970.24
2023-04-14T01:05:03.993Z,970.35
2023-04-14T01:06:03.562Z,970.30
2023-04-14T01:07:03.600Z,970.21
2023-04-14T01:08:03.600Z,970.19
2023-04-14T01:09:03.550Z,970.24
2023-04-14T01:10:03.623Z,970.24
2023-04-14T01:11:03.683Z,970.24
2023-04-14T01:12:03.766Z,970.16
2023-04-14T01:13:03.658Z,970.30
2023-04-14T01:14:03.870Z,970.16
2023-04-14T01:15:03.764Z,970.36
2023-04-14T01:16:03.983Z,970.22
2023-04-14T01:17:03.944Z,970.30
2023-04-14T01:18:04.065Z,970.30
2023-04-14T01:19:03.236Z,970.25
2023-04-14T01:20:03.041Z,970.31
2023-04-14T01:21:03.846Z,970.34
2023-04-14T01:22:03.859Z,970.28
2023-04-14T01:23:03.945Z,970.39
2023-04-14T01:24:02.893Z,970.31
2023-04-14T01:25:02.964Z,970.39
2023-04-14T01:26:03.880Z,970.44
2023-04-14T01:27:02.956Z,970.42
2023-04-14T01:28:02.935Z,970.40
2023-04-14T01:29:03.314Z,970.42
2023-04-14T01:30:03.081Z,970.26
2023-04-14T01:31:03.225Z,970.40
2023-04-14T01:32:03.528Z,970.45
2023-04-14T01:33:03.497Z,970.47
2023-04-14T01:34:03.444Z,970.34
2023-04-14T01:35:03.429Z,970.34
2023-04-14T01:36:03.402Z,970.29
2023-04-14T01:37:03.485Z,970.32
2023-04-14T01:38:03.410Z,970.32
2023-04-14T01:39:03.426Z,970.48
2023-04-14T01:40:03.466Z,970.40
2023-04-14T01:41:03.464Z,970.40
2023-04-14T01:42:03.409Z,970.40
2023-04-14T01:43:03.437Z,970.32
2023-04-14T01:44:03.435Z,970.35
2023-04-14T01:45:03.484Z,970.32
2023-04-14T01:46:03.692Z,970.50
2023-04-14T01:47:03.721Z,970.56
2023-04-14T01:48:03.845Z,970.45
2023-04-14T01:49:04.151Z,970.40
2023-04-14T01:50:03.893Z,970.40
2023-04-14T01:51:03.740Z,970.50
2023-04-14T01:52:03.791Z,970.50
2023-04-14T01:53:03.840Z,970.42
2023-04-14T01:54:03.770Z,970.62
2023-04-14T01:55:03.698Z,970.50
2023-04-14T01:56:03.870Z,970.42
2023-04-14T01:57:03.912Z,970.62
2023-04-14T01:58:03.868Z,970.59
2023-04-14T01:59:03.074Z,970.56
2023-04-14T02:00:02.973Z,970.40
2023-04-14T02:01:03.057Z,970.48
2023-04-14T02:02:03.107Z,970.50
2023-04-14T02:03:03.194Z,970.50
2023-04-14T02:04:03.291Z,970.59
2023-04-14T02:05:03.076Z,970.47
2023-04-14T02:06:02.997Z,970.50
2023-04-14T02:07:03.037Z,970.62
2023-04-14T02:08:03.071Z,970.40
2023-04-14T02:09:03.353Z,970.50
2023-04-14T02:10:03.260Z,970.64
2023-04-14T02:11:03.131Z,970.37
2023-04-14T02:12:03.183Z,970.56
2023-04-14T02:13:03.212Z,970.40
2023-04-14T02:14:03.253Z,970.29
2023-04-14T02:15:03.156Z,970.32
2023-04-14T02:16:03.240Z,970.40
2023-04-14T02:17:03.438Z,970.40
2023-04-14T02:18:03.439Z,970.45
2023-04-14T02:19:03.583Z,970.29
2023-04-14T02:20:03.414Z,970.32
2023-04-14T02:21:03.419Z,970.32
2023-04-14T02:22:03.377Z,970.35
2023-04-14T02:23:03.457Z,970.32
2023-04-14T02:24:03.493Z,970.38
2023-04-14T02:25:03.517Z,970.35
2023-04-14T02:26:03.538Z,970.29
2023-04-14T02:27:03.478Z,970.35
2023-04-14T02:28:03.508Z,970.26
2023-04-14T02:29:03.789Z,970.42
2023-04-14T02:30:03.571Z,970.21
2023-04-14T02:31:03.603Z,970.35
2023-04-14T02:32:03.533Z,970.26
2023-04-14T02:33:03.938Z,970.26
2023-04-14T02:34:03.894Z,970.21
2023-04-14T02:35:03.790Z,970.21
2023-04-14T02:36:03.947Z,970.24
2023-04-14T02:37:03.865Z,970.18
2023-04-14T02:38:02.948Z,970.21
2023-04-14T02:39:03.426Z,970.29
2023-04-14T02:40:02.952Z,970.29
2023-04-14T02:41:03.106Z,970.24
2023-04-14T02:42:03.171Z,970.18
2023-04-14T02:43:03.247Z,970.21
2023-04-14T02:44:03.291Z,970.30
2023-04-14T02:45:03.528Z,970.30
2023-04-14T02:46:03.525Z,970.21
2023-04-14T02:47:03.463Z,970.27
2023-04-14T02:48:03.730Z,970.41
2023-04-14T02:49:03.592Z,970.25
2023-04-14T02:50:03.528Z,970.22
2023-04-14T02:51:03.479Z,970.36
2023-04-14T02:52:03.611Z,970.43
2023-04-14T02:53:03.680Z,970.33
2023-04-14T02:54:03.726Z,970.28
2023-04-14T02:55:03.735Z,970.31
2023-04-14T02:56:03.819Z,970.36
2023-04-14T02:57:03.929Z,970.31
2023-04-14T02:58:02.928Z,970.25
2023-04-14T02:59:03.397Z,970.22
2023-04-14T03:00:03.019Z,970.34
2023-04-14T03:01:03.009Z,970.44
2023-04-14T03:02:03.299Z,970.28
2023-04-14T03:03:03.435Z,970.25
2023-04-14T03:04:03.430Z,970.39
2023-04-14T03:05:03.489Z,970.42
2023-04-14T03:06:03.446Z,970.31
2023-04-14T03:07:03.452Z,970.28
2023-04-14T03:08:03.517Z,970.22
2023-04-14T03:09:03.750Z,970.28
2023-04-14T03:10:03.581Z,970.28
2023-04-14T03:11:03.698Z,970.31
2023-04-14T03:12:03.601Z,970.22
2023-04-14T03:13:03.722Z,970.11
2023-04-14T03:14:03.732Z,970.28
2023-04-14T03:15:03.862Z,970.25
2023-04-14T03:16:03.937Z,970.22
2023-04-14T03:17:03.811Z,970.22
2023-04-14T03:18:03.094Z,970.28
2023-04-14T03:19:03.443Z,970.17
2023-04-14T03:20:02.926Z,970.22
2023-04-14T03:21:02.928Z,970.22
2023-04-14T03:22:03.017Z,970.22
2023-04-14T03:23:03.063Z,970.11
2023-04-14T03:24:03.150Z,970.22
2023-04-14T03:25:03.222Z,970.22
2023-04-14T03:26:03.164Z,970.22
2023-04-14T03:27:03.256Z,970.17
2023-04-14T03:28:03.247Z,970.11
2023-04-14T03:29:03.261Z,970.19
2023-04-14T03:30:03.350Z,970.19
2023-04-14T03:31:03.241Z,970.14
2023-04-14T03:32:03.418Z,970.19
2023-04-14T03:33:03.467Z,970.33
2023-04-14T03:34:03.493Z,970.22
2023-04-14T03:35:03.501Z,970.25
2023-04-14T03:36:03.482Z,970.28
2023-04-14T03:37:03.453Z,970.22
2023-04-14T03:38:03.422Z,970.31
2023-04-14T03:39:03.614Z,970.25
2023-04-14T03:40:03.740Z,970.16
2023-04-14T03:41:03.762Z,970.17
2023-04-14T03:42:03.839Z,970.19
2023-04-14T03:43:03.807Z,970.22
2023-04-14T03:44:03.949Z,970.25
2023-04-14T03:45:03.913Z,970.11
2023-04-14T03:46:03.356Z,970.17
2023-04-14T03:47:03.460Z,970.25
2023-04-14T03:48:03.190Z,970.34
2023-04-14T03:49:03.201Z,970.20
2023-04-14T03:50:03.108Z,970.25
2023-04-14T03:51:03.139Z,970.14
2023-04-14T03:52:03.072Z,970.31
2023-04-14T03:53:03.143Z,970.34
2023-04-14T03:54:03.163Z,970.17
2023-04-14T03:55:03.112Z,970.22
2023-04-14T03:56:03.126Z,970.11
2023-04-14T03:57:03.215Z,970.22
2023-04-14T03:58:03.269Z,970.11
2023-04-14T03:59:03.440Z,970.17
2023-04-14T04:00:03.275Z,970.03
2023-04-14T04:01:03.358Z,970.23
2023-04-14T04:02:03.596Z,970.14
2023-04-14T04:03:03.678Z,970.25
2023-04-14T04:04:03.740Z,970.23
2023-04-14T04:05:03.752Z,970.14
2023-04-14T04:06:03.598Z,970.11
2023-04-14T04:07:03.708Z,970.14
2023-04-14T04:08:03.806Z,970.26
2023-04-14T04:09:03.903Z,970.20
2023-04-14T04:10:03.883Z,970.17
2023-04-14T04:11:03.882Z,970.15
2023-04-14T04:12:03.934Z,970.23
2023-04-14T04:13:02.912Z,970.20
2023-04-14T04:14:03.041Z,970.06
2023-04-14T04:15:03.041Z,969.93
2023-04-14T04:16:03.161Z,970.09
2023-04-14T04:17:03.224Z,970.07
2023-04-14T04:18:03.272Z,970.12
2023-04-14T04:19:03.305Z,970.18
2023-04-14T04:20:04.083Z,970.10
2023-04-14T04:21:03.222Z,970.21
2023-04-14T04:22:03.301Z,970.18
2023-04-14T04:23:03.443Z,970.10
2023-04-14T04:24:03.446Z,970.21
2023-04-14T04:25:03.924Z,970.13
2023-04-14T04:26:03.725Z,970.24
2023-04-14T04:27:08.122Z,970.24
2023-04-14T04:28:03.917Z,970.21
2023-04-14T04:29:03.607Z,970.30
2023-04-14T04:30:02.992Z,970.30
2023-04-14T04:31:02.898Z,970.33
2023-04-14T04:32:03.047Z,970.24
2023-04-14T04:33:03.278Z,970.24
2023-04-14T04:34:03.143Z,970.41
2023-04-14T04:35:03.337Z,970.30
2023-04-14T04:36:03.328Z,970.39
2023-04-14T04:37:03.306Z,970.41
2023-04-14T04:38:03.320Z,970.39
2023-04-14T04:39:03.966Z,970.24
2023-04-14T04:40:03.533Z,970.41
2023-04-14T04:41:03.590Z,970.39
2023-04-14T04:42:03.617Z,970.16
2023-04-14T04:43:03.598Z,970.36
2023-04-14T04:44:03.657Z,970.25
2023-04-14T04:45:03.748Z,970.30
2023-04-14T04:46:03.839Z,970.36
2023-04-14T04:47:03.852Z,970.52
2023-04-14T04:48:03.993Z,970.41
2023-04-14T04:49:03.471Z,970.43
2023-04-14T04:50:03.022Z,970.33
2023-04-14T04:51:03.077Z,970.46
2023-04-14T04:52:03.141Z,970.33
2023-04-14T04:53:03.149Z,970.25
2023-04-14T04:54:03.223Z,970.36
2023-04-14T04:55:03.309Z,970.30
2023-04-14T04:56:03.292Z,970.22
2023-04-14T04:57:03.313Z,970.33
2023-04-14T04:58:03.376Z,970.28
2023-04-14T04:59:03.795Z,970.39
2023-04-14T05:00:03.347Z,970.25
2023-04-14T05:01:03.487Z,970.25
2023-04-14T05:02:03.646Z,970.27
2023-04-14T05:03:04.061Z,970.27
2023-04-14T05:04:03.872Z,970.36
2023-04-14T05:05:04.041Z,970.33
2023-04-14T05:06:03.856Z,970.33
2023-04-14T05:07:03.939Z,970.43
2023-04-14T05:08:02.907Z,970.16
2023-04-14T05:09:03.240Z,970.30
2023-04-14T05:10:03.111Z,970.27
2023-04-14T05:11:03.092Z,970.27
2023-04-14T05:12:03.208Z,970.13
2023-04-14T05:13:03.151Z,970.13
2023-04-14T05:14:03.342Z,970.13
2023-04-14T05:15:03.339Z,970.35
2023-04-14T05:16:03.476Z,970.07
2023-04-14T05:17:03.401Z,970.07
2023-04-14T05:18:03.537Z,970.16
2023-04-14T05:19:04.088Z,970.13
2023-04-14T05:20:03.514Z,970.10
2023-04-14T05:21:03.563Z,970.07
2023-04-14T05:22:03.459Z,970.21
2023-04-14T05:23:03.533Z,970.21
2023-04-14T05:24:03.713Z,970.18
2023-04-14T05:25:03.799Z,970.10
2023-04-14T05:26:35.463Z,970.15
2023-04-14T05:27:15.340Z,970.10
2023-04-14T05:28:03.640Z,970.01
2023-04-14T05:29:04.127Z,970.04
2023-04-14T05:30:03.782Z,970.12
2023-04-14T05:31:03.969Z,970.04
2023-04-14T05:32:03.812Z,970.18
2023-04-14T05:33:02.994Z,970.12
2023-04-14T05:34:03.658Z,970.01
2023-04-14T05:35:03.088Z,970.09
2023-04-14T05:36:03.258Z,970.26
2023-04-14T05:37:03.097Z,970.15
2023-04-14T05:38:03.150Z,970.18
2023-04-14T05:39:03.322Z,970.20
2023-04-14T05:40:03.323Z,970.15
2023-04-14T05:41:03.298Z,970.09
2023-04-14T05:42:03.474Z,970.15
2023-04-14T05:43:03.522Z,970.09
2023-04-14T05:44:04.369Z,970.26
2023-04-14T05:45:03.589Z,970.17
2023-04-14T05:46:03.696Z,970.26
2023-04-14T05:47:03.948Z,970.20
2023-04-14T05:48:03.980Z,970.23
2023-04-14T05:49:03.303Z,970.17
2023-04-14T05:50:02.935Z,970.25
2023-04-14T05:51:03.055Z,970.14
2023-04-14T05:52:03.204Z,970.08
2023-04-14T05:53:03.237Z,970.17
2023-04-14T05:54:03.779Z,969.92
2023-04-14T05:55:03.144Z,970.17
2023-04-14T05:56:03.348Z,970.02
2023-04-14T05:57:03.344Z,970.08
2023-04-14T05:58:03.380Z,970.14
2023-04-14T05:59:03.475Z,970.05
2023-04-14T06:00:03.886Z,969.99
2023-04-14T06:01:03.867Z,969.99
2023-04-14T06:02:03.180Z,970.08
2023-04-14T06:03:03.485Z,969.96
2023-04-14T06:04:04.336Z,969.99
2023-04-14T06:05:03.496Z,969.99
2023-04-14T06:06:03.232Z,970.02
2023-04-14T06:07:03.439Z,970.07
2023-04-14T06:08:03.491Z,970.07
2023-04-14T06:09:03.732Z,970.18
2023-04-14T06:10:03.807Z,970.04
2023-04-14T06:11:03.994Z,970.04
2023-04-14T06:12:03.864Z,970.10
2023-04-14T06:13:03.073Z,969.96
2023-04-14T06:14:03.523Z,970.07
2023-04-14T06:15:03.131Z,970.09
2023-04-14T06:16:03.183Z,970.07
2023-04-14T06:17:03.212Z,970.01
2023-04-14T06:18:03.433Z,970.12
2023-04-14T06:19:03.629Z,969.98
2023-04-14T06:20:03.353Z,969.98
2023-04-14T06:21:03.627Z,969.98
2023-04-14T06:22:03.681Z,970.09
2023-04-14T06:23:03.765Z,970.12
2023-04-14T06:24:03.864Z,970.06
2023-04-14T06:25:02.951Z,970.09
2023-04-14T06:26:03.037Z,970.06
2023-04-14T06:27:03.124Z,970.12
2023-04-14T06:28:03.144Z,970.14
2023-04-14T06:29:03.970Z,970.17
2023-04-14T06:30:03.148Z,970.09
2023-04-14T06:31:03.172Z,969.97
2023-04-14T06:32:03.383Z,970.06
2023-04-14T06:33:03.353Z,970.11
2023-04-14T06:34:03.322Z,970.08
2023-04-14T06:35:03.408Z,969.97
2023-04-14T06:36:03.513Z,970.05
2023-04-14T06:37:03.722Z,970.11
2023-04-14T06:38:03.677Z,970.14
2023-04-14T06:39:04.092Z,969.92
2023-04-14T06:40:03.948Z,970.11
2023-04-14T06:41:02.968Z,969.92
2023-04-14T06:42:03.079Z,969.99
2023-04-14T06:43:02.970Z,970.10
2023-04-14T06:44:03.015Z,969.99
2023-04-14T06:45:03.020Z,969.88
2023-04-14T06:46:03.063Z,969.91
2023-04-14T06:47:03.012Z,969.91
2023-04-14T06:48:03.262Z,969.96
2023-04-14T06:49:03.724Z,969.71
2023-04-14T06:50:03.366Z,969.82
2023-04-14T06:51:03.273Z,969.88
2023-04-14T06:52:03.224Z,969.79
2023-04-14T06:53:03.179Z,969.82
2023-04-14T06:54:04.162Z,969.76
2023-04-14T06:55:03.334Z,969.84
2023-04-14T06:56:03.380Z,969.73
2023-04-14T06:57:03.249Z,969.73
2023-04-14T06:58:03.450Z,969.65
2023-04-14T06:59:03.376Z,969.76
2023-04-14T07:00:03.419Z,969.76
2023-04-14T07:01:03.674Z,969.81
2023-04-14T07:02:03.997Z,969.84
2023-04-14T07:03:03.889Z,969.78
2023-04-14T07:04:08.081Z,969.84
2023-04-14T07:05:04.182Z,969.78
2023-04-14T07:06:03.038Z,969.67
2023-04-14T07:07:03.215Z,969.70
2023-04-14T07:08:03.201Z,969.72
2023-04-14T07:09:03.166Z,969.67
2023-04-14T07:10:03.317Z,969.81
2023-04-14T07:11:03.335Z,969.75
2023-04-14T07:12:03.307Z,969.80
2023-04-14T07:13:03.310Z,969.77
2023-04-14T07:14:03.936Z,969.89
2023-04-14T07:15:03.394Z,969.83
2023-04-14T07:16:03.578Z,969.96
2023-04-14T07:17:03.637Z,969.86
2023-04-14T07:18:03.766Z,969.91
2023-04-14T07:19:03.750Z,969.91
2023-04-14T07:20:03.926Z,969.96
2023-04-14T07:21:03.895Z,970.10
2023-04-14T07:22:03.065Z,969.91
2023-04-14T07:23:03.009Z,970.01
2023-04-14T07:24:03.574Z,969.85
2023-04-14T07:25:03.029Z,970.04
2023-04-14T07:26:03.224Z,970.09
2023-04-14T07:27:03.188Z,970.03
2023-04-14T07:28:04.583Z,969.93
2023-04-14T07:29:03.348Z,969.98
2023-04-14T07:30:03.335Z,970.03
2023-04-14T07:31:03.553Z,969.84
2023-04-14T07:32:03.486Z,969.93
2023-04-14T07:33:03.546Z,969.93
2023-04-14T07:34:03.736Z,969.92
2023-04-14T07:35:03.650Z,969.97
2023-04-14T07:36:04.501Z,970.06
2023-04-14T07:37:03.648Z,970.17
2023-04-14T07:38:03.726Z,970.00
2023-04-14T07:39:03.702Z,970.11
2023-04-14T07:40:03.808Z,970.11
2023-04-14T07:41:03.949Z,970.14
2023-04-14T07:42:03.077Z,969.99
2023-04-14T07:43:03.129Z,970.16
2023-04-14T07:44:03.965Z,970.02
2023-04-14T07:45:03.203Z,970.08
2023-04-14T07:46:03.602Z,970.19
2023-04-14T07:47:03.542Z,970.07
2023-04-14T07:48:03.546Z,969.88
2023-04-14T07:49:03.525Z,969.91
2023-04-14T07:50:03.668Z,969.98
2023-04-14T07:51:03.795Z,969.93
2023-04-14T07:52:03.779Z,969.88
2023-04-14T07:53:03.794Z,970.01
2023-04-14T07:54:03.861Z,969.73
2023-04-14T07:55:03.924Z,969.84
2023-04-14T07:56:03.865Z,969.78
2023-04-14T07:57:03.246Z,969.89
2023-04-14T07:58:03.350Z,969.75
2023-04-14T07:59:03.768Z,969.75
2023-04-14T08:00:03.330Z,969.83
2023-04-14T08:01:03.349Z,969.75
2023-04-14T08:02:04.084Z,969.83
2023-04-14T08:03:04.124Z,969.86
2023-04-14T08:04:03.426Z,969.88
2023-04-14T08:05:03.119Z,969.80
2023-04-14T08:06:03.056Z,969.99
2023-04-14T08:07:03.224Z,969.85
2023-04-14T08:08:03.355Z,970.07
2023-04-14T08:09:03.920Z,969.90
2023-04-14T08:10:03.503Z,969.93
2023-04-14T08:11:03.503Z,970.03
2023-04-14T08:12:03.753Z,969.98
2023-04-14T08:13:04.288Z,969.93
2023-04-14T08:14:03.665Z,970.06
2023-04-14T08:15:03.704Z,970.00
2023-04-14T08:16:03.964Z,970.02
2023-04-14T08:17:03.078Z,970.13
2023-04-14T08:18:03.250Z,970.05
2023-04-14T08:19:03.626Z,969.91
2023-04-14T08:20:03.174Z,969.88
2023-04-14T08:21:03.243Z,970.04
2023-04-14T08:22:03.418Z,970.06
2023-04-14T08:23:03.499Z,970.06
2023-04-14T08:24:03.717Z,969.97
2023-04-14T08:25:03.766Z,970.00
2023-04-14T08:26:03.752Z,969.97
2023-04-14T08:27:03.928Z,969.86
2023-04-14T08:28:03.893Z,969.99
2023-04-14T08:29:03.717Z,970.02
2023-04-14T08:30:03.050Z,969.91
2023-04-14T08:31:02.977Z,969.98
2023-04-14T08:32:03.287Z,969.90
2023-04-14T08:33:03.224Z,970.01
2023-04-14T08:34:03.296Z,969.98
2023-04-14T08:35:42.396Z,969.90
2023-04-14T08:36:03.865Z,969.92
2023-04-14T08:37:03.986Z,969.81
2023-04-14T08:38:03.942Z,970.08
2023-04-14T08:39:03.401Z,969.86
2023-04-14T08:40:03.056Z,969.91
2023-04-14T08:41:03.188Z,970.02
2023-04-14T08:42:03.335Z,969.91
2023-04-14T08:43:03.499Z,970.04
2023-04-14T08:44:03.551Z,969.98
2023-04-14T08:45:03.722Z,969.93
2023-04-14T08:46:03.898Z,969.89
2023-04-14T08:47:03.668Z,970.02
2023-04-14T08:48:03.901Z,970.05
2023-04-14T08:49:03.913Z,969.99
2023-04-14T08:50:03.816Z,969.96
2023-04-14T08:51:03.768Z,970.02
2023-04-14T08:52:03.868Z,970.04
2023-04-14T08:53:02.933Z,969.99
2023-04-14T08:54:03.707Z,970.24
2023-04-14T08:55:03.269Z,970.30
2023-04-14T08:56:03.196Z,970.30
2023-04-14T08:57:03.278Z,970.30
2023-04-14T08:58:03.294Z,970.41
2023-04-14T08:59:03.391Z,970.24
2023-04-14T09:00:03.537Z,970.30
2023-04-14T09:01:03.765Z,970.39
2023-04-14T09:02:04.026Z,970.33
2023-04-14T09:03:04.471Z,970.30
2023-04-14T09:04:04.060Z,970.33
2023-04-14T09:05:03.514Z,970.39
2023-04-14T09:06:03.172Z,970.25
2023-04-14T09:07:03.271Z,970.36
2023-04-14T09:08:03.294Z,970.42
2023-04-14T09:09:03.284Z,970.19
2023-04-14T09:10:03.444Z,970.42
2023-04-14T09:11:03.411Z,970.42
2023-04-14T09:12:03.413Z,970.47
2023-04-14T09:13:03.417Z,970.47
2023-04-14T09:14:04.340Z,970.39
2023-04-14T09:15:03.540Z,970.42
2023-04-14T09:16:03.658Z,970.39
2023-04-14T09:17:03.861Z,970.47
2023-04-14T09:18:03.809Z,970.55
2023-04-14T09:19:07.995Z,970.39
2023-04-14T09:20:40.592Z,970.52
2023-04-14T09:21:54.157Z,970.49
2023-04-14T09:22:03.282Z,970.49
2023-04-14T09:23:04.148Z,970.58
2023-04-14T09:24:03.672Z,970.58
2023-04-14T09:25:03.598Z,970.55
2023-04-14T09:26:03.531Z,970.63
2023-04-14T09:27:03.555Z,970.58
2023-04-14T09:28:03.721Z,970.60
2023-04-14T09:29:04.442Z,970.55
2023-04-14T09:30:04.004Z,970.41
2023-04-14T09:31:03.974Z,970.49
2023-04-14T09:32:03.085Z,970.57
2023-04-14T09:33:03.195Z,970.49
2023-04-14T09:34:03.700Z,970.57
2023-04-14T09:35:03.253Z,970.46
2023-04-14T09:36:03.388Z,970.48
2023-04-14T09:37:03.421Z,970.57
2023-04-14T09:38:03.510Z,970.42
2023-04-14T09:39:03.670Z,970.48
2023-04-14T09:40:03.795Z,970.56
2023-04-14T09:41:03.730Z,970.45
2023-04-14T09:42:03.971Z,970.51
2023-04-14T09:43:03.094Z,970.59
2023-04-14T09:44:03.725Z,970.57
2023-04-14T09:45:03.055Z,970.54
2023-04-14T09:46:03.265Z,970.59
2023-04-14T09:47:03.224Z,970.62
2023-04-14T09:48:03.412Z,970.60
2023-04-14T09:49:03.473Z,970.60
2023-04-14T09:50:03.579Z,970.54
2023-04-14T09:51:03.896Z,970.63
2023-04-14T09:52:03.739Z,970.54
2023-04-14T09:53:03.792Z,970.69
2023-04-14T09:54:04.678Z,970.69
2023-04-14T09:55:03.785Z,970.80
2023-04-14T09:56:03.972Z,970.86
2023-04-14T09:57:02.914Z,970.72
2023-04-14T09:58:02.982Z,970.66
2023-04-14T09:59:04.028Z,970.77
2023-04-14T10:00:03.129Z,970.80
2023-04-14T10:01:03.084Z,970.81
2023-04-14T10:02:03.185Z,970.73
2023-04-14T10:03:03.280Z,970.73
2023-04-14T10:04:03.546Z,970.78
2023-04-14T10:05:03.627Z,970.67
2023-04-14T10:06:03.319Z,970.76
2023-04-14T10:07:03.337Z,970.73
2023-04-14T10:08:03.446Z,970.56
2023-04-14T10:09:04.072Z,970.67
2023-04-14T10:10:03.876Z,970.52
2023-04-14T10:11:03.668Z,970.61
2023-04-14T10:12:03.827Z,970.55
2023-04-14T10:13:03.832Z,970.46
2023-04-14T10:14:03.984Z,970.58
2023-04-14T10:15:03.096Z,970.55
2023-04-14T10:16:03.163Z,970.46
2023-04-14T10:17:03.079Z,970.41
2023-04-14T10:18:03.273Z,970.46
2023-04-14T10:19:04.386Z,970.54
2023-04-14T10:20:03.457Z,970.43
2023-04-14T10:21:03.334Z,970.41
2023-04-14T10:22:03.459Z,970.45
2023-04-14T10:23:03.483Z,970.48
2023-04-14T10:24:03.487Z,970.42
2023-04-14T10:25:03.487Z,970.45
2023-04-14T10:26:03.538Z,970.53
2023-04-14T10:27:03.625Z,970.56
2023-04-14T10:28:03.599Z,970.34
2023-04-14T10:29:04.140Z,970.50
2023-04-14T10:30:03.630Z,970.52
2023-04-14T10:31:03.864Z,970.52
2023-04-14T10:32:04.070Z,970.52
2023-04-14T10:33:03.111Z,970.43
2023-04-14T10:34:03.058Z,970.46
2023-04-14T10:35:03.267Z,970.46
2023-04-14T10:36:03.471Z,970.51
2023-04-14T10:37:03.606Z,970.45
2023-04-14T10:38:03.643Z,970.54
2023-04-14T10:39:04.208Z,970.56
2023-04-14T10:40:03.802Z,970.65
2023-04-14T10:41:03.789Z,970.62
2023-04-14T10:42:03.820Z,970.62
2023-04-14T10:43:03.830Z,970.64
2023-04-14T10:44:03.828Z,970.64
2023-04-14T10:45:03.933Z,970.70
2023-04-14T10:46:02.983Z,970.53
2023-04-14T10:47:03.178Z,970.76
2023-04-14T10:48:03.333Z,970.59
2023-04-14T10:49:03.488Z,970.56
2023-04-14T10:50:03.137Z,970.62
2023-04-14T10:51:03.300Z,970.76
2023-04-14T10:52:03.428Z,970.67
2023-04-14T10:53:03.472Z,970.79
2023-04-14T10:54:03.452Z,970.79
2023-04-14T10:55:03.570Z,970.88
2023-04-14T10:56:03.613Z,970.74
2023-04-14T10:57:03.766Z,970.88
2023-04-14T10:58:03.834Z,970.79
2023-04-14T10:59:03.919Z,970.71
2023-04-14T11:00:03.824Z,970.88
2023-04-14T11:01:03.110Z,970.85
2023-04-14T11:02:03.353Z,970.82
2023-04-14T11:03:03.818Z,970.90
2023-04-14T11:04:03.398Z,970.67
2023-04-14T11:05:03.229Z,970.70
2023-04-14T11:06:03.281Z,970.67
2023-04-14T11:07:03.364Z,970.62
2023-04-14T11:08:03.796Z,970.59
2023-04-14T11:09:03.911Z,970.59
2023-04-14T11:10:03.561Z,970.67
2023-04-14T11:11:03.663Z,970.65
2023-04-14T11:12:03.652Z,970.62
2023-04-14T11:13:04.023Z,970.76
2023-04-14T11:14:03.880Z,970.62
2023-04-14T11:15:04.085Z,970.50
2023-04-14T11:16:03.957Z,970.59
2023-04-14T11:17:05.406Z,970.70
2023-04-14T11:18:03.027Z,970.70
2023-04-14T11:19:03.341Z,970.50
2023-04-14T11:20:03.095Z,970.53
2023-04-14T11:21:03.125Z,970.67
2023-04-14T11:22:03.031Z,970.59
2023-04-14T11:23:03.210Z,970.76
2023-04-14T11:24:03.196Z,970.82
2023-04-14T11:25:03.444Z,970.68
2023-04-14T11:26:03.414Z,970.76
2023-04-14T11:27:03.429Z,970.70
2023-04-14T11:28:03.470Z,970.67
2023-04-14T11:29:03.700Z,970.67
2023-04-14T11:30:03.675Z,970.59
2023-04-14T11:31:03.826Z,970.48
2023-04-14T11:32:03.924Z,970.65
2023-04-14T11:33:03.173Z,970.53
2023-04-14T11:34:03.137Z,970.37
2023-04-14T11:35:03.061Z,970.42
2023-04-14T11:36:03.329Z,970.37
2023-04-14T11:37:03.420Z,970.53
2023-04-14T11:38:03.518Z,970.26
2023-04-14T11:39:03.969Z,970.31
2023-04-14T11:40:03.893Z,970.28
2023-04-14T11:41:03.669Z,970.42
2023-04-14T11:42:03.694Z,970.31
2023-04-14T11:43:03.699Z,970.31
2023-04-14T11:44:03.722Z,970.27
2023-04-14T11:45:03.740Z,970.36
2023-04-14T11:46:03.960Z,970.21
2023-04-14T11:47:03.881Z,970.24
2023-04-14T11:48:03.962Z,970.32
2023-04-14T11:49:04.118Z,970.29
2023-04-14T11:50:03.065Z,970.37
2023-04-14T11:51:02.958Z,970.19
2023-04-14T11:52:03.168Z,970.25
2023-04-14T11:53:03.222Z,970.31
2023-04-14T11:54:03.103Z,970.33
2023-04-14T11:55:03.296Z,970.47
2023-04-14T11:56:03.335Z,970.31
2023-04-14T11:57:03.241Z,970.47
2023-04-14T11:58:03.372Z,970.25
2023-04-14T11:59:04.434Z,970.42
2023-04-14T12:00:03.405Z,970.36
2023-04-14T12:01:03.379Z,970.30
2023-04-14T12:02:03.674Z,970.42
2023-04-14T12:03:04.063Z,970.39
2023-04-14T12:04:04.124Z,970.33
2023-04-14T12:05:04.285Z,970.30
2023-04-14T12:06:04.089Z,970.33
2023-04-14T12:07:03.802Z,970.33
2023-04-14T12:08:04.626Z,970.49
2023-04-14T12:09:03.918Z,970.36
2023-04-14T12:10:03.852Z,970.25
2023-04-14T12:11:03.872Z,970.30
2023-04-14T12:12:02.959Z,970.30
2023-04-14T12:13:03.082Z,970.36
2023-04-14T12:14:03.130Z,970.16
2023-04-14T12:15:03.279Z,970.36
2023-04-14T12:16:03.354Z,970.36
2023-04-14T12:17:03.601Z,970.42
2023-04-14T12:18:03.813Z,970.30
2023-04-14T12:19:04.801Z,970.25
2023-04-14T12:20:03.866Z,970.44
2023-04-14T12:21:03.002Z,970.42
2023-04-14T12:22:03.053Z,970.36
2023-04-14T12:23:02.997Z,970.37
2023-04-14T12:24:03.188Z,970.42
2023-04-14T12:25:03.199Z,970.37
2023-04-14T12:26:03.143Z,970.37
2023-04-14T12:27:03.332Z,970.37
2023-04-14T12:28:03.327Z,970.39